Time;durP1;ratioP1;P1;durP2;ratioP2;P2;SDS_P1;SDS_P2;PMS_P1;PMS_P2;Temp;Humidity;BMP_temperature;BMP_pressure;BME280_temperature;BME280_humidity;BME280_pressure;Samples;Min_cycle;Max_cycle;Signal;HPM_P1;HPM_P2
2023/08/24 00:00:40;;;;;;;12.93;8.05;;;15.60;99.70;;;;;;5090684;27;20054;-80
2023/08/24 00:03:06;;;;;;;12.00;8.60;;;15.60;99.80;;;;;;5079100;27;20138;-80
2023/08/24 00:05:37;;;;;;;13.90;8.38;;;15.60;99.80;;;;;;5077168;27;20044;-80
2023/08/24 00:08:07;;;;;;;12.85;9.23;;;15.60;99.90;;;;;;5075770;27;20055;-80
2023/08/24 00:10:34;;;;;;;13.48;8.88;;;16.00;99.90;;;;;;5091874;27;20088;-80
2023/08/24 00:13:00;;;;;;;13.65;9.20;;;15.60;99.90;;;;;;5089569;27;20066;-80
2023/08/24 00:15:26;;;;;;;12.88;9.05;;;15.10;99.90;;;;;;5079141;27;20579;-81
2023/08/24 00:17:52;;;;;;;15.32;9.13;;;15.60;99.90;;;;;;5077518;27;20552;-80
2023/08/24 00:20:19;;;;;;;15.10;9.20;;;15.60;99.90;;;;;;5091614;27;20050;-80
2023/08/24 00:22:46;;;;;;;13.20;9.77;;;15.60;99.90;;;;;;5092883;27;20048;-80
2023/08/24 00:25:12;;;;;;;13.48;9.52;;;15.60;99.90;;;;;;5088867;27;20044;-80
2023/08/24 00:27:38;;;;;;;13.88;9.77;;;15.60;99.90;;;;;;5075122;27;20047;-80
2023/08/24 00:30:06;;;;;;;13.88;9.73;;;15.60;99.90;;;;;;5091260;27;20634;-79
2023/08/24 00:32:35;;;;;;;14.13;9.75;;;15.60;99.90;;;;;;5090154;27;20050;-79
2023/08/24 00:35:06;;;;;;;12.82;10.00;;;15.60;99.90;;;;;;5081967;27;20179;-80
2023/08/24 00:37:32;;;;;;;14.25;9.93;;;15.60;99.90;;;;;;5090539;27;20051;-80
2023/08/24 00:40:08;;;;;;;14.13;9.93;;;15.60;99.90;;;;;;5093646;27;20489;-80
2023/08/24 00:42:39;;;;;;;14.68;9.73;;;15.60;99.90;;;;;;5066016;27;20050;-80
2023/08/24 00:45:06;;;;;;;12.85;9.57;;;15.60;99.90;;;;;;5094330;27;20054;-80
2023/08/24 00:47:32;;;;;;;13.70;8.85;;;15.70;99.90;;;;;;5093221;27;20071;-80
2023/08/24 00:50:00;;;;;;;14.70;9.43;;;15.70;99.90;;;;;;5089525;28;20066;-80
2023/08/24 00:52:31;;;;;;;13.90;9.48;;;15.70;99.90;;;;;;5097521;27;20050;-80
2023/08/24 00:54:58;;;;;;;12.73;8.82;;;15.70;99.90;;;;;;5081403;27;20061;-80
2023/08/24 00:57:24;;;;;;;13.38;8.80;;;15.70;99.90;;;;;;5075430;28;20907;-80
2023/08/24 00:59:50;;;;;;;15.20;9.50;;;15.80;99.90;;;;;;5075235;27;20505;-80
2023/08/24 01:02:15;;;;;;;10.27;8.15;;;15.80;99.90;;;;;;5064720;27;20070;-80
2023/08/24 01:04:42;;;;;;;13.77;8.85;;;15.80;99.90;;;;;;5076196;27;20391;-79
2023/08/24 01:07:09;;;;;;;11.88;9.05;;;15.80;99.90;;;;;;5093665;27;20071;-80
2023/08/24 01:09:35;;;;;;;13.25;9.00;;;15.80;99.90;;;;;;5073595;27;20083;-79
2023/08/24 01:12:26;;;;;;;11.05;7.75;;;15.90;99.90;;;;;;5089364;27;20040;-79
2023/08/24 01:15:03;;;;;;;11.95;7.60;;;15.90;99.90;;;;;;5115159;27;20501;-80
2023/08/24 01:17:30;;;;;;;9.93;7.82;;;15.90;99.90;;;;;;5097294;27;20182;-80
2023/08/24 01:19:58;;;;;;;12.05;8.43;;;15.90;99.90;;;;;;5093746;27;20562;-80
2023/08/24 01:22:27;;;;;;;12.27;9.30;;;15.90;99.90;;;;;;5093851;27;20050;-80
2023/08/24 01:25:15;;;;;;;13.40;9.07;;;15.90;99.90;;;;;;5101675;27;20088;-81
2023/08/24 01:27:42;;;;;;;13.73;9.38;;;15.90;99.90;;;;;;5095573;27;20114;-80
2023/08/24 01:30:09;;;;;;;14.38;9.13;;;15.90;99.90;;;;;;5069588;27;20176;-80
2023/08/24 01:32:35;;;;;;;10.23;8.70;;;15.90;99.90;;;;;;5097865;27;20058;-80
2023/08/24 01:35:07;;;;;;;14.13;9.27;;;15.90;99.90;;;;;;5080025;27;20043;-80
2023/08/24 01:37:35;;;;;;;17.02;9.60;;;15.90;99.90;;;;;;5110317;27;20509;-80
2023/08/24 01:40:12;;;;;;;14.57;8.90;;;15.90;99.90;;;;;;5094865;27;20086;-80
2023/08/24 01:43:05;;;;;;;12.77;8.55;;;15.80;99.90;;;;;;5094064;27;20047;-80
2023/08/24 01:45:32;;;;;;;11.85;9.10;;;15.80;99.90;;;;;;5094918;27;20395;-80
2023/08/24 01:48:02;;;;;;;12.63;8.85;;;15.80;99.90;;;;;;5096418;27;20044;-79
2023/08/24 01:50:30;;;;;;;12.20;9.63;;;15.80;99.90;;;;;;5083541;27;20428;-80
2023/08/24 01:52:56;;;;;;;14.65;9.10;;;15.80;99.90;;;;;;5095122;27;20047;-80
2023/08/24 01:55:23;;;;;;;12.25;9.13;;;15.80;99.90;;;;;;5101490;27;20048;-80
2023/08/24 01:57:49;;;;;;;12.93;9.70;;;15.80;99.90;;;;;;5096407;27;20185;-80
2023/08/24 02:00:15;;;;;;;13.60;9.35;;;15.70;99.90;;;;;;5066835;27;20084;-78
2023/08/24 02:02:44;;;;;;;13.90;8.80;;;15.70;99.90;;;;;;5100491;27;20050;-80
2023/08/24 02:05:10;;;;;;;13.38;9.23;;;15.70;99.90;;;;;;5092752;27;20390;-81
2023/08/24 02:07:38;;;;;;;11.60;9.00;;;15.40;99.90;;;;;;5100929;27;20035;-80
2023/08/24 02:10:04;;;;;;;14.82;9.32;;;15.70;99.90;;;;;;5080879;27;20457;-80
2023/08/24 02:12:30;;;;;;;14.63;9.40;;;15.70;99.90;;;;;;5078412;27;20134;-80
2023/08/24 02:14:56;;;;;;;14.95;10.25;;;15.70;99.90;;;;;;5083785;27;20047;-80
2023/08/24 02:17:21;;;;;;;15.55;9.07;;;15.70;99.90;;;;;;5084881;27;20141;-80
2023/08/24 02:19:47;;;;;;;19.98;9.85;;;15.70;99.90;;;;;;5093162;27;20051;-81
2023/08/24 02:22:13;;;;;;;13.75;10.75;;;15.70;99.90;;;;;;5078038;27;20043;-80
2023/08/24 02:24:39;;;;;;;16.77;10.10;;;15.70;99.90;;;;;;5095459;27;20039;-80
2023/08/24 02:27:05;;;;;;;16.60;9.88;;;15.70;99.90;;;;;;5095450;27;20039;-80
2023/08/24 02:29:31;;;;;;;14.40;9.55;;;15.70;99.90;;;;;;5067438;27;20195;-80
2023/08/24 02:31:56;;;;;;;13.57;10.27;;;15.60;99.90;;;;;;5091394;27;20043;-80
2023/08/24 02:34:22;;;;;;;12.55;9.30;;;15.60;99.90;;;;;;5061685;27;20047;-80
2023/08/24 02:36:48;;;;;;;13.13;9.32;;;15.60;99.90;;;;;;5068965;27;20115;-80
2023/08/24 02:39:14;;;;;;;14.43;9.05;;;15.70;99.90;;;;;;5092858;27;20059;-80
2023/08/24 02:41:40;;;;;;;14.32;9.30;;;15.60;99.90;;;;;;5083912;27;20556;-80
2023/08/24 02:44:06;;;;;;;13.25;9.68;;;15.60;99.90;;;;;;5082873;27;20083;-80
2023/08/24 02:46:33;;;;;;;14.30;9.57;;;15.60;99.90;;;;;;5099157;27;20410;-80
2023/08/24 02:48:58;;;;;;;14.43;9.20;;;15.60;99.90;;;;;;5080963;27;20055;-80
2023/08/24 02:51:24;;;;;;;14.10;9.70;;;15.60;99.90;;;;;;5097414;27;20039;-80
2023/08/24 02:53:51;;;;;;;14.60;10.02;;;15.50;99.90;;;;;;5113286;27;20050;-77
2023/08/24 02:56:17;;;;;;;14.35;9.35;;;15.50;99.90;;;;;;5078601;27;20049;-81
2023/08/24 02:58:43;;;;;;;15.00;9.20;;;15.50;99.90;;;;;;5093060;27;20047;-80
2023/08/24 03:01:08;;;;;;;12.73;8.75;;;15.50;99.90;;;;;;5066495;27;20327;-81
2023/08/24 03:03:40;;;;;;;13.07;9.40;;;15.40;99.90;;;;;;5094978;27;20055;-81
2023/08/24 03:06:07;;;;;;;13.13;9.80;;;15.50;99.90;;;;;;5080433;27;20047;-80
2023/08/24 03:08:34;;;;;;;12.93;9.65;;;15.40;99.90;;;;;;5092292;27;20039;-80
2023/08/24 03:11:01;;;;;;;10.73;9.02;;;15.50;99.90;;;;;;5094618;27;20568;-80
2023/08/24 03:13:28;;;;;;;14.00;10.25;;;15.50;99.90;;;;;;5092214;27;20043;-80
2023/08/24 03:15:54;;;;;;;11.48;8.98;;;15.50;99.90;;;;;;5109120;27;20050;-81
2023/08/24 03:18:21;;;;;;;12.05;9.05;;;15.50;99.90;;;;;;5069459;27;20161;-80
2023/08/24 03:20:48;;;;;;;14.93;9.80;;;15.50;99.90;;;;;;5094720;27;20490;-81
2023/08/24 03:23:14;;;;;;;15.23;9.10;;;15.50;99.90;;;;;;5095788;27;20070;-80
2023/08/24 03:25:41;;;;;;;13.70;8.77;;;15.50;99.90;;;;;;5068749;27;20042;-80
2023/08/24 03:28:08;;;;;;;12.75;9.60;;;15.50;99.90;;;;;;5078855;27;20043;-80
2023/08/24 03:30:47;;;;;;;12.90;9.23;;;15.50;99.90;;;;;;5096631;27;20767;-80
2023/08/24 03:33:13;;;;;;;13.25;9.80;;;16.20;99.90;;;;;;5094445;27;20048;-81
2023/08/24 03:35:39;;;;;;;12.65;8.95;;;15.50;99.90;;;;;;5098902;27;20541;-80
2023/08/24 03:38:05;;;;;;;16.10;9.70;;;15.50;99.90;;;;;;5096428;27;20085;-81
2023/08/24 03:40:31;;;;;;;13.05;8.75;;;15.50;99.90;;;;;;5094830;27;20134;-81
2023/08/24 03:42:57;;;;;;;15.95;10.20;;;15.50;99.90;;;;;;5082830;27;20569;-80
2023/08/24 03:45:23;;;;;;;14.13;9.13;;;15.50;99.90;;;;;;5100795;27;20063;-81
2023/08/24 03:47:49;;;;;;;14.93;9.73;;;15.50;99.90;;;;;;5096153;27;20089;-80
2023/08/24 03:50:15;;;;;;;14.88;9.90;;;15.50;99.90;;;;;;5097034;27;20597;-81
2023/08/24 03:52:41;;;;;;;14.82;10.02;;;15.50;99.90;;;;;;5083733;27;20040;-81
2023/08/24 03:55:08;;;;;;;13.05;9.15;;;15.50;99.90;;;;;;5066977;27;20039;-80
2023/08/24 03:57:34;;;;;;;14.02;9.00;;;15.60;99.90;;;;;;5081010;27;20051;-80
2023/08/24 04:00:00;;;;;;;11.77;9.20;;;15.60;99.90;;;;;;5067192;27;20386;-81
2023/08/24 04:02:26;;;;;;;16.42;9.68;;;15.60;99.90;;;;;;5094410;27;20047;-81
2023/08/24 04:04:52;;;;;;;11.30;9.50;;;15.60;99.90;;;;;;5090759;27;20051;-80
2023/08/24 04:07:19;;;;;;;15.85;9.88;;;15.50;99.90;;;;;;5094080;27;20050;-81
2023/08/24 04:09:45;;;;;;;15.38;10.00;;;15.60;99.90;;;;;;5117201;27;20050;-83
2023/08/24 04:12:11;;;;;;;15.52;9.68;;;15.50;99.90;;;;;;5092436;27;20051;-83
2023/08/24 04:14:37;;;;;;;16.50;10.23;;;15.50;99.90;;;;;;5081123;27;20483;-82
2023/08/24 04:17:03;;;;;;;13.43;9.80;;;15.50;99.90;;;;;;5083795;27;20036;-81
2023/08/24 04:19:29;;;;;;;12.18;9.57;;;15.50;99.90;;;;;;5068466;27;20049;-81
2023/08/24 04:21:54;;;;;;;13.35;9.63;;;15.50;99.90;;;;;;5097490;27;20050;-80
2023/08/24 04:24:20;;;;;;;13.27;9.90;;;15.40;99.90;;;;;;5099308;27;20127;-82
2023/08/24 04:26:46;;;;;;;11.25;9.32;;;15.40;99.90;;;;;;5064438;27;20049;-82
2023/08/24 04:29:12;;;;;;;14.18;9.73;;;15.40;99.90;;;;;;5098878;27;20043;-82
2023/08/24 04:31:40;;;;;;;13.90;9.65;;;15.40;99.90;;;;;;5082428;27;20074;-81
2023/08/24 04:34:06;;;;;;;15.15;9.55;;;15.30;99.90;;;;;;5099119;27;20051;-81
2023/08/24 04:36:32;;;;;;;11.80;9.48;;;15.30;99.90;;;;;;5081716;27;20660;-83
2023/08/24 04:38:57;;;;;;;11.98;9.40;;;15.30;99.90;;;;;;5098829;27;20129;-83
2023/08/24 04:41:23;;;;;;;14.90;9.63;;;15.30;99.90;;;;;;5088414;27;20052;-83
2023/08/24 04:43:52;;;;;;;14.32;9.48;;;15.30;99.90;;;;;;5109247;27;20691;-81
2023/08/24 04:46:17;;;;;;;14.40;8.98;;;15.20;99.90;;;;;;5083201;27;20050;-82
2023/08/24 04:48:43;;;;;;;13.68;9.40;;;15.20;99.90;;;;;;5079361;27;20048;-83
2023/08/24 04:51:09;;;;;;;11.88;8.57;;;15.20;99.90;;;;;;5095095;27;20460;-82
2023/08/24 04:53:35;;;;;;;16.95;9.82;;;15.20;99.90;;;;;;5079992;27;20046;-84
2023/08/24 04:56:01;;;;;;;14.43;9.73;;;15.10;99.90;;;;;;5047463;27;20867;-82
2023/08/24 04:58:26;;;;;;;11.45;9.25;;;15.10;99.90;;;;;;5095689;28;20532;-83
2023/08/24 05:00:52;;;;;;;14.07;10.05;;;15.10;99.90;;;;;;5063222;28;20468;-82
2023/08/24 05:03:19;;;;;;;16.98;9.98;;;15.10;99.90;;;;;;5112923;28;20046;-81
2023/08/24 05:05:47;;;;;;;15.32;9.52;;;15.10;99.90;;;;;;5083162;28;20071;-81
2023/08/24 05:08:13;;;;;;;12.85;8.77;;;15.10;99.90;;;;;;5083335;28;20126;-82
2023/08/24 05:10:41;;;;;;;13.90;9.80;;;15.10;99.90;;;;;;5097640;27;20130;-80
2023/08/24 05:13:07;;;;;;;12.70;9.05;;;15.10;99.90;;;;;;5051143;27;20069;-84
2023/08/24 05:15:32;;;;;;;13.38;9.50;;;15.10;99.90;;;;;;5066647;27;20069;-80
2023/08/24 05:17:59;;;;;;;13.27;8.75;;;15.10;99.90;;;;;;5065070;27;20043;-73
2023/08/24 05:20:28;;;;;;;12.82;8.93;;;15.10;99.90;;;;;;5093853;27;20754;-81
2023/08/24 05:22:55;;;;;;;14.65;9.55;;;15.10;99.90;;;;;;5090099;28;20099;-76
2023/08/24 05:25:21;;;;;;;11.55;8.52;;;15.10;99.90;;;;;;5092273;27;20115;-77
2023/08/24 05:27:47;;;;;;;13.63;8.68;;;15.10;99.90;;;;;;5076557;27;20051;-77
2023/08/24 05:30:13;;;;;;;13.00;9.57;;;15.10;99.90;;;;;;5090511;27;20061;-77
2023/08/24 05:32:39;;;;;;;13.52;9.40;;;15.20;99.90;;;;;;5095216;27;20078;-77
2023/08/24 05:35:06;;;;;;;13.65;7.88;;;15.10;99.90;;;;;;5082586;27;20331;-74
2023/08/24 05:37:32;;;;;;;11.95;9.05;;;15.10;99.90;;;;;;5095939;28;20067;-75
2023/08/24 05:39:59;;;;;;;14.68;8.88;;;15.20;99.90;;;;;;5091720;27;20505;-75
2023/08/24 05:42:25;;;;;;;13.02;8.55;;;15.20;99.90;;;;;;5094151;27;20144;-75
2023/08/24 05:44:51;;;;;;;14.68;9.23;;;15.20;99.90;;;;;;5094737;27;20135;-74
2023/08/24 05:47:17;;;;;;;12.75;8.95;;;15.20;99.90;;;;;;5092876;27;20140;-76
2023/08/24 05:49:43;;;;;;;13.68;8.90;;;15.30;99.90;;;;;;5094202;27;20063;-76
2023/08/24 05:52:09;;;;;;;10.43;8.30;;;15.30;99.90;;;;;;5083289;28;20198;-78
2023/08/24 05:54:36;;;;;;;15.10;9.27;;;15.30;99.90;;;;;;5094747;27;20051;-76
2023/08/24 05:57:03;;;;;;;12.23;9.10;;;15.40;99.90;;;;;;5093138;28;20728;-78
2023/08/24 05:59:30;;;;;;;14.32;8.98;;;15.40;99.90;;;;;;5088259;27;20168;-78
2023/08/24 06:01:55;;;;;;;12.70;9.15;;;15.50;99.90;;;;;;5088034;27;20047;-75
2023/08/24 06:04:21;;;;;;;14.00;9.50;;;15.50;99.90;;;;;;5098149;27;20043;-78
2023/08/24 06:06:47;;;;;;;13.05;9.32;;;15.50;99.90;;;;;;5101043;27;20554;-73
2023/08/24 06:09:14;;;;;;;10.77;9.00;;;15.60;99.90;;;;;;5113349;27;20039;-74
2023/08/24 06:11:41;;;;;;;13.90;9.80;;;15.70;99.90;;;;;;5097227;27;20047;-74
2023/08/24 06:14:07;;;;;;;17.05;9.88;;;15.70;99.90;;;;;;5097617;27;20066;-73
2023/08/24 06:16:33;;;;;;;12.38;8.95;;;15.80;99.90;;;;;;5102018;27;20449;-74
2023/08/24 06:18:58;;;;;;;16.40;9.02;;;15.80;99.90;;;;;;5095237;27;20046;-74
2023/08/24 06:21:25;;;;;;;11.98;9.40;;;15.90;99.90;;;;;;5098378;27;20485;-74
2023/08/24 06:23:51;;;;;;;12.60;9.52;;;16.00;99.90;;;;;;5095481;27;20054;-74
2023/08/24 06:26:18;;;;;;;15.52;9.68;;;16.10;99.90;;;;;;5094431;27;20036;-72
2023/08/24 06:28:43;;;;;;;12.48;9.07;;;16.20;99.90;;;;;;5099035;27;20055;-74
2023/08/24 06:31:09;;;;;;;11.88;8.32;;;16.20;99.90;;;;;;5083618;27;20607;-72
2023/08/24 06:33:36;;;;;;;14.40;9.27;;;16.30;99.90;;;;;;5082099;27;20054;-74
2023/08/24 06:36:06;;;;;;;12.55;8.23;;;16.40;99.90;;;;;;5095024;27;20137;-72
2023/08/24 06:38:32;;;;;;;12.20;9.23;;;16.50;99.90;;;;;;5095870;27;20046;-74
2023/08/24 06:40:58;;;;;;;12.38;8.88;;;16.60;99.90;;;;;;5080974;27;20051;-74
2023/08/24 06:43:25;;;;;;;14.20;8.80;;;16.70;99.90;;;;;;5079308;27;20123;-74
2023/08/24 06:45:51;;;;;;;18.35;9.13;;;16.80;99.90;;;;;;5098127;27;20038;-74
2023/08/24 06:48:18;;;;;;;10.75;9.10;;;16.90;99.90;;;;;;5091925;27;20050;-74
2023/08/24 06:50:44;;;;;;;11.50;8.98;;;17.00;99.90;;;;;;5091742;27;20690;-74
2023/08/24 06:53:10;;;;;;;12.32;8.63;;;17.20;99.90;;;;;;5092522;27;20043;-76
2023/08/24 06:55:36;;;;;;;11.88;8.48;;;17.30;99.90;;;;;;5094993;27;20489;-71
2023/08/24 06:58:06;;;;;;;8.65;7.50;;;17.50;99.90;;;;;;5095234;27;20104;-73
2023/08/24 07:00:33;;;;;;;10.93;8.68;;;17.70;99.90;;;;;;5075639;27;20376;-72
2023/08/24 07:02:59;;;;;;;12.32;7.68;;;18.20;99.90;;;;;;5093752;27;20048;-72
2023/08/24 07:05:25;;;;;;;14.93;7.97;;;17.90;99.90;;;;;;5093575;27;20074;-72
2023/08/24 07:07:51;;;;;;;8.68;7.65;;;18.10;99.90;;;;;;5082410;27;20055;-71
2023/08/24 07:10:17;;;;;;;10.35;7.22;;;18.20;99.90;;;;;;5082439;27;20071;-71
2023/08/24 07:12:45;;;;;;;11.30;7.13;;;18.40;99.90;;;;;;5075780;27;20555;-73
2023/08/24 07:15:14;;;;;;;11.73;6.50;;;18.50;99.90;;;;;;5089828;27;20043;-72
2023/08/24 07:17:40;;;;;;;11.20;7.35;;;18.70;99.90;;;;;;5093138;27;20039;-72
2023/08/24 07:20:09;;;;;;;10.82;6.72;;;18.80;99.90;;;;;;5075053;27;20051;-72
2023/08/24 07:22:35;;;;;;;8.45;6.35;;;19.00;99.90;;;;;;5097727;27;20058;-74
2023/08/24 07:25:04;;;;;;;10.48;6.35;;;19.20;99.90;;;;;;5095228;27;20034;-74
2023/08/24 07:27:34;;;;;;;7.03;5.63;;;19.40;99.90;;;;;;5091947;27;20100;-75
2023/08/24 07:30:00;;;;;;;7.25;5.80;;;19.50;99.90;;;;;;5092539;27;20044;-75
2023/08/24 07:32:27;;;;;;;7.78;5.40;;;19.70;99.90;;;;;;5077160;27;20051;-75
2023/08/24 07:34:53;;;;;;;8.25;5.22;;;20.00;99.90;;;;;;5084865;27;20043;-77
2023/08/24 07:37:19;;;;;;;6.50;5.18;;;20.10;99.30;;;;;;5064288;27;20096;-75
2023/08/24 07:39:45;;;;;;;8.18;4.80;;;20.30;98.60;;;;;;5076285;27;20116;-75
2023/08/24 07:42:10;;;;;;;6.03;4.28;;;20.60;98.00;;;;;;5074727;27;20054;-76
2023/08/24 07:44:36;;;;;;;6.10;4.28;;;20.70;97.10;;;;;;5110834;27;20058;-75
2023/08/24 07:47:02;;;;;;;6.95;4.45;;;20.70;96.40;;;;;;5091551;27;20153;-75
2023/08/24 07:49:28;;;;;;;7.05;4.30;;;20.90;95.50;;;;;;5092373;27;20104;-76
2023/08/24 07:51:55;;;;;;;5.88;4.30;;;21.00;94.90;;;;;;5073808;27;20055;-75
2023/08/24 07:54:21;;;;;;;5.05;3.70;;;21.30;94.10;;;;;;5089347;27;20047;-75
2023/08/24 07:56:47;;;;;;;6.57;4.07;;;21.40;93.10;;;;;;5092748;27;20069;-75
2023/08/24 07:59:12;;;;;;;7.60;3.88;;;21.60;92.60;;;;;;5124261;27;20165;-76
2023/08/24 08:01:38;;;;;;;5.70;3.20;;;21.80;91.60;;;;;;5063362;27;20133;-79
2023/08/24 08:04:04;;;;;;;3.05;2.63;;;22.10;90.10;;;;;;5076094;27;20054;-76
2023/08/24 08:06:30;;;;;;;5.03;2.47;;;22.20;87.60;;;;;;5090633;27;20415;-77
2023/08/24 08:08:58;;;;;;;6.57;2.88;;;22.40;85.00;;;;;;5058812;27;20301;-76
2023/08/24 08:11:23;;;;;;;6.38;2.60;;;22.50;81.20;;;;;;5089484;27;20066;-76
2023/08/24 08:13:49;;;;;;;7.57;2.90;;;22.60;79.70;;;;;;5074659;27;20390;-77
2023/08/24 08:16:15;;;;;;;5.10;3.08;;;22.70;78.10;;;;;;5072572;27;20465;-75
2023/08/24 08:18:41;;;;;;;4.15;3.17;;;22.80;75.90;;;;;;5078497;27;20098;-75
2023/08/24 08:21:14;;;;;;;5.15;3.47;;;22.90;74.70;;;;;;5074766;27;20048;-76
2023/08/24 08:23:40;;;;;;;5.05;3.33;;;23.10;74.20;;;;;;5080250;27;20107;-76
2023/08/24 08:26:09;;;;;;;6.00;4.00;;;23.30;73.70;;;;;;5092922;27;20485;-75
2023/08/24 08:28:35;;;;;;;12.77;4.07;;;23.40;72.40;;;;;;5079032;27;20566;-75
2023/08/24 08:31:01;;;;;;;9.43;3.95;;;23.50;71.80;;;;;;5089302;27;20043;-76
2023/08/24 08:33:27;;;;;;;5.80;4.28;;;23.80;70.80;;;;;;5071724;27;21544;-76
2023/08/24 08:35:53;;;;;;;6.15;4.00;;;23.80;69.90;;;;;;5089855;27;20509;-75
2023/08/24 08:38:21;;;;;;;6.32;3.53;;;23.80;69.70;;;;;;5092713;27;20043;-75
2023/08/24 08:40:49;;;;;;;7.40;4.00;;;23.80;69.40;;;;;;5088630;27;20406;-75
2023/08/24 08:43:15;;;;;;;8.88;4.60;;;24.00;69.50;;;;;;5096319;27;20078;-77
2023/08/24 08:45:41;;;;;;;6.97;4.15;;;23.90;69.00;;;;;;5056429;27;20182;-76
2023/08/24 08:48:10;;;;;;;16.60;5.13;;;24.00;69.10;;;;;;5059832;27;20043;-75
2023/08/24 08:50:36;;;;;;;10.80;4.82;;;23.90;69.10;;;;;;5079983;27;20083;-76
2023/08/24 08:53:02;;;;;;;7.18;4.85;;;23.80;69.80;;;;;;5091750;27;20638;-74
2023/08/24 08:55:30;;;;;;;6.45;4.97;;;23.80;71.50;;;;;;5063971;27;20043;-75
2023/08/24 08:57:58;;;;;;;9.18;5.47;;;23.70;72.70;;;;;;5089210;27;20082;-75
2023/08/24 09:00:24;;;;;;;8.35;5.30;;;23.50;73.20;;;;;;5091378;27;20043;-76
2023/08/24 09:02:52;;;;;;;7.68;5.10;;;23.40;74.50;;;;;;5091875;27;20135;-74
2023/08/24 09:05:48;;;;;;;8.90;4.88;;;23.30;75.40;;;;;;5091678;27;20394;-76
2023/08/24 09:08:18;;;;;;;10.13;5.70;;;23.30;75.20;;;;;;5109981;27;20419;-79
2023/08/24 09:10:44;;;;;;;8.98;5.75;;;23.10;77.30;;;;;;5092261;27;20387;-79
2023/08/24 09:13:17;;;;;;;9.13;5.65;;;23.00;78.20;;;;;;5094809;27;20043;-79
2023/08/24 09:16:08;;;;;;;9.27;5.65;;;22.80;79.30;;;;;;5091546;27;20114;-79
2023/08/24 09:18:38;;;;;;;8.23;5.80;;;22.70;80.80;;;;;;5095962;27;20043;-78
2023/08/24 09:21:19;;;;;;;9.30;6.05;;;22.50;82.20;;;;;;5095284;27;20076;-79
2023/08/24 09:24:13;;;;;;;10.18;6.20;;;22.40;82.20;;;;;;5115181;27;20134;-80
2023/08/24 09:26:45;;;;;;;9.40;5.55;;;22.30;84.10;;;;;;5114660;27;20997;-80
2023/08/24 09:29:16;;;;;;;11.48;6.68;;;22.20;84.50;;;;;;5114401;27;20072;-81
2023/08/24 09:31:45;;;;;;;9.23;6.60;;;22.40;84.90;;;;;;5112771;27;20046;-79
2023/08/24 09:34:13;;;;;;;10.90;6.82;;;22.00;85.40;;;;;;5094081;27;20138;-81
2023/08/24 09:36:39;;;;;;;8.63;6.22;;;22.00;86.10;;;;;;5118591;27;20035;-79
2023/08/24 09:39:06;;;;;;;8.85;6.60;;;22.10;87.20;;;;;;5116344;27;20043;-78
2023/08/24 09:41:50;;;;;;;12.02;7.30;;;21.70;88.10;;;;;;5067650;28;20059;-81
2023/08/24 09:44:19;;;;;;;11.07;7.43;;;21.70;89.10;;;;;;5088008;28;20066;-84
2023/08/24 09:46:45;;;;;;;14.05;7.10;;;21.60;90.30;;;;;;5072267;28;20064;-80
2023/08/24 09:49:12;;;;;;;11.60;7.50;;;21.50;90.80;;;;;;5073395;28;20052;-83
2023/08/24 09:51:39;;;;;;;12.38;6.82;;;21.50;91.50;;;;;;5056723;28;20084;-83
2023/08/24 09:54:10;;;;;;;11.48;7.18;;;21.30;92.10;;;;;;5037736;28;20053;-83
2023/08/24 09:56:38;;;;;;;15.45;7.38;;;21.30;92.70;;;;;;5010761;28;20205;-83
2023/08/24 09:59:17;;;;;;;10.00;7.78;;;21.20;93.20;;;;;;5028993;28;20055;-81
2023/08/24 10:01:50;;;;;;;12.55;7.47;;;21.10;93.60;;;;;;5011381;28;20087;-83
2023/08/24 10:04:23;;;;;;;11.13;7.13;;;21.00;94.10;;;;;;5008054;28;20132;-82
2023/08/24 10:07:15;;;;;;;12.68;7.68;;;20.90;94.50;;;;;;5027044;28;20049;-82
2023/08/24 10:09:52;;;;;;;12.35;7.68;;;20.90;94.90;;;;;;5008568;28;20789;-84
2023/08/24 10:12:20;;;;;;;10.10;7.75;;;20.80;95.30;;;;;;5025481;28;20056;-83
2023/08/24 10:15:04;;;;;;;12.38;8.10;;;20.80;95.70;;;;;;5048794;28;20194;-83
2023/08/24 10:17:34;;;;;;;11.30;7.85;;;20.70;96.20;;;;;;5062759;28;20089;-82
2023/08/24 10:20:01;;;;;;;13.02;8.25;;;20.60;96.50;;;;;;5048726;28;20121;-82
2023/08/24 10:22:28;;;;;;;10.25;7.90;;;20.60;96.90;;;;;;5032045;28;20178;-83
2023/08/24 10:24:55;;;;;;;11.68;8.15;;;20.50;97.40;;;;;;5043122;28;20036;-82
2023/08/24 10:27:24;;;;;;;12.75;8.13;;;20.50;98.00;;;;;;5061451;28;20452;-80
2023/08/24 10:29:49;;;;;;;11.90;7.70;;;20.40;98.50;;;;;;5094119;27;20087;-81
2023/08/24 10:32:17;;;;;;;13.07;8.20;;;19.90;98.80;;;;;;5120393;27;20127;-82
2023/08/24 10:34:44;;;;;;;13.57;9.02;;;20.30;99.10;;;;;;5102178;27;20140;-82
2023/08/24 10:37:11;;;;;;;13.63;8.52;;;20.30;99.40;;;;;;5086509;27;20106;-81
2023/08/24 10:39:43;;;;;;;13.82;8.90;;;20.20;99.70;;;;;;5088372;27;20035;-81
2023/08/24 10:42:11;;;;;;;15.45;9.07;;;20.20;99.90;;;;;;5101867;27;20619;-82
2023/08/24 10:44:39;;;;;;;14.80;9.05;;;20.20;99.90;;;;;;5122148;27;20050;-81
2023/08/24 10:47:22;;;;;;;14.73;8.77;;;20.20;99.90;;;;;;5102304;27;20043;-81
2023/08/24 10:49:59;;;;;;;13.48;9.65;;;19.30;99.90;;;;;;5115876;27;20043;-81
2023/08/24 10:52:29;;;;;;;13.48;9.65;;;20.10;99.90;;;;;;5102031;27;20043;-81
2023/08/24 10:54:56;;;;;;;16.13;9.15;;;20.10;99.90;;;;;;5094109;27;20035;-80
2023/08/24 10:57:29;;;;;;;15.10;10.15;;;20.10;99.90;;;;;;5122058;27;20055;-81
2023/08/24 10:59:59;;;;;;;11.88;9.45;;;20.00;99.90;;;;;;5107677;27;20067;-81
2023/08/24 11:02:25;;;;;;;11.68;9.27;;;19.90;99.90;;;;;;5098742;27;20062;-81
2023/08/24 11:05:30;;;;;;;17.55;10.30;;;20.00;99.90;;;;;;5100509;27;20047;-79
2023/08/24 11:07:59;;;;;;;15.00;9.85;;;19.50;99.90;;;;;;5022943;28;20080;-78
2023/08/24 11:10:31;;;;;;;15.90;10.70;;;19.90;99.90;;;;;;4999865;28;20088;-80
2023/08/24 11:13:15;;;;;;;16.70;11.15;;;19.80;99.90;;;;;;5037213;28;20073;-80
2023/08/24 11:15:46;;;;;;;15.18;10.93;;;19.90;99.90;;;;;;5070007;27;20051;-79
2023/08/24 11:18:24;;;;;;;17.73;11.52;;;19.80;99.90;;;;;;5095657;27;20051;-81
2023/08/24 11:21:01;;;;;;;16.10;10.73;;;19.80;99.90;;;;;;5082502;27;20101;-80
2023/08/24 11:23:28;;;;;;;15.88;11.20;;;19.70;99.90;;;;;;5117490;27;20055;-79
2023/08/24 11:25:57;;;;;;;17.00;11.48;;;19.80;99.90;;;;;;5083288;27;20119;-80
2023/08/24 11:28:31;;;;;;;18.70;11.65;;;19.70;99.90;;;;;;5099606;27;20452;-83
2023/08/24 11:30:58;;;;;;;16.30;12.13;;;19.70;99.90;;;;;;5080763;27;20493;-80
2023/08/24 11:33:32;;;;;;;15.20;10.93;;;19.80;99.90;;;;;;5084288;27;20486;-82
2023/08/24 11:35:59;;;;;;;16.02;10.43;;;19.80;99.90;;;;;;5116007;27;20081;-82
2023/08/24 11:38:25;;;;;;;16.73;11.23;;;19.80;99.90;;;;;;5115821;27;20050;-82
2023/08/24 11:40:51;;;;;;;14.98;11.27;;;19.70;99.90;;;;;;5099206;27;20051;-80
2023/08/24 11:43:29;;;;;;;15.90;11.52;;;19.70;99.90;;;;;;5115955;27;20570;-80
2023/08/24 11:46:15;;;;;;;18.65;11.73;;;19.70;99.90;;;;;;5098462;27;20142;-80
2023/08/24 11:48:41;;;;;;;;;;;19.70;99.90;;;;;;5087101;27;20050;-80
2023/08/24 11:51:12;;;;;;;21.45;11.77;;;19.70;99.90;;;;;;5097748;27;19969;-80
2023/08/24 11:53:43;;;;;;;16.45;12.60;;;19.70;99.90;;;;;;5081687;27;20058;-80
2023/08/24 11:56:11;;;;;;;16.85;12.45;;;19.70;99.90;;;;;;5088547;27;20408;-81
2023/08/24 11:58:40;;;;;;;15.98;12.45;;;19.70;99.90;;;;;;5083949;27;20075;-79
2023/08/24 12:01:10;;;;;;;15.85;12.27;;;19.70;99.90;;;;;;5085966;27;20058;-81
2023/08/24 12:03:37;;;;;;;15.90;13.43;;;19.70;99.90;;;;;;5094809;27;20549;-80
2023/08/24 12:06:16;;;;;;;16.92;13.18;;;19.80;99.90;;;;;;5102936;27;20409;-80
2023/08/24 12:08:45;;;;;;;17.50;12.90;;;19.80;99.90;;;;;;5086453;27;20055;-79
2023/08/24 12:11:17;;;;;;;19.20;14.43;;;19.80;99.90;;;;;;5115122;27;20123;-84
2023/08/24 12:13:48;;;;;;;20.23;14.40;;;19.80;99.90;;;;;;5095207;27;20099;-80
2023/08/24 12:16:18;;;;;;;19.60;15.07;;;19.80;99.90;;;;;;5115160;27;20846;-84
2023/08/24 12:19:03;;;;;;;20.02;14.77;;;19.80;99.90;;;;;;5096555;27;20046;-82
2023/08/24 12:21:30;;;;;;;19.95;14.80;;;19.80;99.90;;;;;;5104067;27;20055;-81
2023/08/24 12:24:01;;;;;;;19.73;15.55;;;19.80;99.90;;;;;;5104538;27;20491;-84
2023/08/24 12:26:27;;;;;;;19.55;14.25;;;19.90;99.90;;;;;;5095109;27;20051;-77
2023/08/24 12:28:55;;;;;;;17.60;14.95;;;19.90;99.90;;;;;;5098278;27;20626;-77
2023/08/24 12:31:42;;;;;;;18.88;15.20;;;19.90;99.90;;;;;;5096685;27;20682;-80
2023/08/24 12:34:35;;;;;;;21.15;15.20;;;19.90;99.90;;;;;;5109432;27;20051;-77
2023/08/24 12:38:16;;;;;;;21.67;15.10;;;20.00;99.90;;;;;;5094657;27;20630;-79
2023/08/24 12:40:42;;;;;;;19.25;15.88;;;20.00;99.90;;;;;;5093043;27;20127;-77
2023/08/24 12:43:14;;;;;;;19.45;15.20;;;20.00;99.90;;;;;;5084673;27;20075;-82
2023/08/24 12:45:41;;;;;;;18.08;14.30;;;20.00;99.90;;;;;;5112526;27;20075;-82